Time;durP1;ratioP1;P1;durP2;ratioP2;P2;SDS_P1;SDS_P2;PMS_P1;PMS_P2;Temp;Humidity;BMP_temperature;BMP_pressure;BME280_temperature;BME280_humidity;BME280_pressure;Samples;Min_cycle;Max_cycle;Signal;HPM_P1;HPM_P2
2022/09/13 00:00:20;;;;;;;11.55;6.45;;;;;;;14.21;62.94;99508.84;10393927;28;20144;-82
2022/09/13 00:05:22;;;;;;;9.10;6.63;;;;;;;14.03;63.35;99503.28;10397365;28;20049;-82
2022/09/13 00:10:25;;;;;;;10.65;6.50;;;;;;;14.05;63.69;99504.00;10397699;28;20064;-82
2022/09/13 00:15:27;;;;;;;10.65;6.35;;;;;;;14.05;63.74;99493.47;10392750;28;20684;-82
2022/09/13 00:20:29;;;;;;;8.57;6.32;;;;;;;14.10;63.49;99472.06;10397389;28;20506;-82
2022/09/13 00:25:30;;;;;;;9.82;6.45;;;;;;;14.02;63.29;99475.34;10397702;28;20057;-82
2022/09/13 00:30:33;;;;;;;10.82;6.43;;;;;;;13.96;63.90;99464.47;10395511;28;20495;-82
2022/09/13 00:35:34;;;;;;;6.93;5.53;;;;;;;14.01;63.38;99462.28;10395205;28;20057;-83
2022/09/13 00:40:37;;;;;;;8.40;6.10;;;;;;;14.02;63.54;99482.38;10395746;28;20056;-82
2022/09/13 00:45:39;;;;;;;10.02;6.30;;;;;;;14.00;63.13;99482.50;10396401;28;20080;-82
2022/09/13 00:50:44;;;;;;;8.13;5.38;;;;;;;13.95;63.58;99470.69;10395018;28;20597;-82
2022/09/13 00:55:52;;;;;;;10.80;7.03;;;;;;;13.90;63.54;99478.97;10395839;28;20053;-83
2022/09/13 01:00:58;;;;;;;11.05;7.75;;;;;;;13.69;63.44;99483.28;10396295;28;20062;-80
2022/09/13 01:06:09;;;;;;;10.85;7.03;;;;;;;13.61;64.51;99468.16;10394450;28;20095;-80
2022/09/13 01:11:18;;;;;;;12.35;7.13;;;;;;;13.69;64.16;99455.22;10395392;28;20049;-80
2022/09/13 01:16:20;;;;;;;8.38;6.75;;;;;;;13.63;63.99;99455.72;10398070;28;20049;-80
2022/09/13 01:21:57;;;;;;;7.85;6.47;;;;;;;13.56;63.92;99438.75;10394630;28;20049;-79
2022/09/13 01:27:29;;;;;;;8.38;6.03;;;;;;;13.48;64.16;99440.31;10382847;28;20064;-80
2022/09/13 01:33:12;;;;;;;9.48;5.88;;;;;;;13.51;64.01;99447.97;10395005;28;20387;-79
2022/09/13 01:38:40;;;;;;;9.32;6.22;;;;;;;13.47;64.02;99444.75;10402433;28;20060;-79
2022/09/13 01:44:02;;;;;;;7.78;6.45;;;;;;;13.47;63.96;99457.06;10390394;28;20045;-79
2022/09/13 01:49:16;;;;;;;7.78;6.10;;;;;;;13.48;63.90;99463.97;10395232;28;20080;-79
2022/09/13 01:54:50;;;;;;;8.80;6.70;;;;;;;13.48;64.00;99450.81;10394092;28;20060;-79
2022/09/13 02:00:06;;;;;;;11.48;6.80;;;;;;;13.43;64.11;99455.63;10392175;28;20067;-80
2022/09/13 02:05:12;;;;;;;8.50;6.30;;;;;;;13.50;64.10;99459.41;10399853;28;20045;-80
2022/09/13 02:10:24;;;;;;;12.43;6.55;;;;;;;13.55;64.38;99455.50;10398695;28;20053;-79
2022/09/13 02:15:46;;;;;;;9.93;6.35;;;;;;;13.61;64.04;99462.03;10403534;28;20072;-79
2022/09/13 02:20:50;;;;;;;9.63;7.05;;;;;;;13.73;63.58;99463.69;10401164;28;20503;-79
2022/09/13 02:25:56;;;;;;;9.48;7.00;;;;;;;13.80;63.55;99466.66;10399332;28;20049;-79
2022/09/13 02:31:00;;;;;;;8.30;6.43;;;;;;;13.90;63.55;99467.59;10399297;28;20057;-79
2022/09/13 02:36:07;;;;;;;9.63;6.88;;;;;;;13.99;63.60;99462.41;10398502;28;20057;-79
2022/09/13 02:41:16;;;;;;;8.45;6.03;;;;;;;14.03;63.24;99458.59;10398935;28;20053;-79
2022/09/13 02:46:43;;;;;;;8.65;6.88;;;;;;;14.01;63.27;99454.41;10395119;28;20049;-79
2022/09/13 02:51:59;;;;;;;13.13;6.40;;;;;;;14.04;63.28;99447.13;10397146;28;20053;-79
2022/09/13 02:57:11;;;;;;;8.43;6.60;;;;;;;14.01;63.12;99450.00;10398409;28;20053;-79
2022/09/13 03:02:16;;;;;;;9.45;6.65;;;;;;;13.89;63.33;99440.47;10396535;28;20076;-79
2022/09/13 03:07:18;;;;;;;8.75;5.88;;;;;;;13.78;63.36;99448.38;10386950;28;20430;-80
2022/09/13 03:12:57;;;;;;;12.18;6.68;;;;;;;13.75;63.51;99448.63;10391741;28;20041;-79
2022/09/13 03:18:28;;;;;;;8.98;6.10;;;;;;;13.77;63.52;99437.03;10400219;28;20053;-80
2022/09/13 03:23:29;;;;;;;9.80;6.22;;;;;;;13.72;63.26;99430.47;10393153;28;20053;-79
2022/09/13 03:29:03;;;;;;;7.90;6.40;;;;;;;13.69;63.59;99426.31;10401934;28;20123;-79
2022/09/13 03:34:15;;;;;;;10.13;5.85;;;;;;;13.68;63.39;99423.78;10400177;28;20053;-79
2022/09/13 03:39:30;;;;;;;11.27;6.78;;;;;;;13.56;63.86;99414.25;10409000;28;20061;-79
2022/09/13 03:44:36;;;;;;;8.98;5.68;;;;;;;13.60;63.56;99407.81;10397886;28;20045;-79
2022/09/13 03:49:39;;;;;;;12.48;6.50;;;;;;;13.53;63.71;99411.91;10398695;28;20144;-79
2022/09/13 03:54:40;;;;;;;11.15;6.55;;;;;;;13.44;64.22;99408.22;10399828;28;20050;-79
2022/09/13 03:59:46;;;;;;;9.02;6.13;;;;;;;13.58;64.13;99417.59;10399521;28;20515;-79
2022/09/13 04:04:48;;;;;;;10.02;6.13;;;;;;;13.60;64.30;99408.66;10398897;28;20903;-79
2022/09/13 04:09:50;;;;;;;6.82;5.72;;;;;;;13.77;63.77;99413.41;10397722;28;20041;-79
2022/09/13 04:14:51;;;;;;;9.48;5.85;;;;;;;13.91;63.56;99406.16;10397698;28;20053;-79
2022/09/13 04:19:53;;;;;;;7.80;5.68;;;;;;;13.91;63.46;99399.13;10398407;28;20046;-79
2022/09/13 04:24:55;;;;;;;10.65;6.05;;;;;;;13.92;63.55;99405.22;10398893;28;20056;-79
2022/09/13 04:30:03;;;;;;;10.07;6.13;;;;;;;13.95;63.25;99411.06;10397824;28;20063;-79
2022/09/13 04:35:07;;;;;;;10.70;6.82;;;;;;;13.94;63.44;99404.16;10398060;28;20525;-79
2022/09/13 04:40:09;;;;;;;10.10;5.93;;;;;;;13.90;63.56;99405.34;10398552;28;20045;-79
2022/09/13 04:45:11;;;;;;;13.20;5.55;;;;;;;13.88;63.56;99406.44;10394417;28;20059;-79
2022/09/13 04:50:13;;;;;;;10.70;6.07;;;;;;;13.87;63.76;99413.47;10396732;28;20421;-79
2022/09/13 04:55:15;;;;;;;13.95;6.40;;;;;;;13.92;63.59;99413.94;10395716;28;20049;-79
2022/09/13 05:00:17;;;;;;;14.80;6.00;;;;;;;14.00;63.41;99422.03;10397756;28;20061;-79
2022/09/13 05:05:18;;;;;;;11.93;7.15;;;;;;;14.07;63.51;99417.94;10397207;28;20053;-79
2022/09/13 05:10:20;;;;;;;8.63;5.50;;;;;;;14.10;63.51;99428.22;10397176;28;20388;-79
2022/09/13 05:15:22;;;;;;;10.32;5.57;;;;;;;14.13;63.14;99416.59;10390968;28;20474;-79
2022/09/13 05:20:24;;;;;;;9.63;6.57;;;;;;;14.13;63.38;99429.72;10395816;28;20057;-79
2022/09/13 05:25:25;;;;;;;9.75;6.00;;;;;;;14.12;63.56;99423.66;10396380;28;20053;-79
2022/09/13 05:30:27;;;;;;;11.18;6.20;;;;;;;14.12;63.48;99435.97;10395702;28;20059;-79
2022/09/13 05:35:29;;;;;;;9.50;5.93;;;;;;;14.10;63.62;99440.53;10393203;28;20061;-79
2022/09/13 05:40:30;;;;;;;7.40;5.50;;;;;;;14.18;63.43;99440.72;10393470;28;20407;-79
2022/09/13 05:45:32;;;;;;;8.95;6.03;;;;;;;14.28;63.38;99439.00;10394702;28;20045;-79
2022/09/13 05:50:37;;;;;;;10.27;6.32;;;;;;;14.21;63.30;99443.94;10394031;28;20060;-79
2022/09/13 05:55:59;;;;;;;12.73;6.50;;;;;;;14.45;63.18;99455.06;10395520;28;20146;-79
2022/09/13 06:01:01;;;;;;;12.70;6.10;;;;;;;14.60;62.76;99447.72;10394072;28;20499;-79
2022/09/13 06:06:04;;;;;;;9.07;6.68;;;;;;;14.75;62.68;99443.81;10395044;28;20089;-79
2022/09/13 06:11:08;;;;;;;9.70;5.72;;;;;;;14.81;62.61;99445.06;10392682;28;20049;-80
2022/09/13 06:16:12;;;;;;;9.07;6.05;;;;;;;14.81;62.61;99448.53;10394216;28;20500;-80
2022/09/13 06:21:21;;;;;;;9.18;6.30;;;;;;;14.90;62.43;99460.91;10385484;28;20045;-80
2022/09/13 06:26:30;;;;;;;7.68;6.07;;;;;;;14.93;62.08;99455.41;10391696;28;20053;-80
2022/09/13 06:31:32;;;;;;;8.25;6.25;;;;;;;15.02;62.33;99451.16;10394454;28;20045;-80
2022/09/13 06:36:34;;;;;;;8.82;6.70;;;;;;;15.18;61.90;99446.25;10387885;28;20061;-80
2022/09/13 06:41:36;;;;;;;11.05;6.35;;;;;;;15.24;61.49;99450.97;10389862;28;20517;-80
2022/09/13 06:46:37;;;;;;;9.80;6.63;;;;;;;15.39;61.31;99457.53;10387640;28;20053;-82
2022/09/13 06:51:39;;;;;;;7.10;5.97;;;;;;;15.54;61.16;99452.75;10389393;28;20076;-80
2022/09/13 06:56:41;;;;;;;10.20;6.50;;;;;;;15.48;61.32;99448.00;10393044;28;20553;-80
2022/09/13 07:01:43;;;;;;;8.73;6.57;;;;;;;15.60;61.69;99439.03;10391600;28;20057;-80
2022/09/13 07:06:48;;;;;;;11.07;6.30;;;;;;;15.70;61.33;99414.38;10385252;28;20147;-80
2022/09/13 07:11:52;;;;;;;13.75;7.43;;;;;;;15.59;60.96;99403.94;10383130;28;20058;-80
2022/09/13 07:16:54;;;;;;;10.00;7.35;;;;;;;15.32;61.52;99420.38;10385209;28;20065;-81
2022/09/13 07:21:56;;;;;;;11.88;6.88;;;;;;;15.60;61.19;99408.25;10393010;28;20061;-81
2022/09/13 07:26:58;;;;;;;10.02;7.53;;;;;;;15.77;60.47;99394.41;10391577;28;20084;-80
2022/09/13 07:32:00;;;;;;;10.15;7.07;;;;;;;15.87;60.83;99387.34;10392292;28;20415;-80
2022/09/13 07:37:01;;;;;;;8.35;6.75;;;;;;;15.80;61.43;99404.69;10390906;28;20056;-81
2022/09/13 07:42:03;;;;;;;8.80;7.03;;;;;;;16.08;61.12;99409.13;10392463;28;20050;-80
2022/09/13 07:47:05;;;;;;;14.50;8.38;;;;;;;16.17;60.71;99399.56;10392365;28;20063;-80
2022/09/13 07:52:07;;;;;;;12.88;8.55;;;;;;;16.27;60.34;99413.56;10387529;28;20063;-81
2022/09/13 07:57:08;;;;;;;10.90;8.43;;;;;;;16.34;60.54;99404.13;10390580;28;20502;-81
2022/09/13 08:02:10;;;;;;;13.20;8.70;;;;;;;16.70;59.55;99406.03;10396745;28;20054;-81
2022/09/13 08:07:13;;;;;;;14.35;8.60;;;;;;;17.00;58.80;99403.16;10397919;28;20061;-81
2022/09/13 08:12:14;;;;;;;12.70;7.53;;;;;;;17.37;58.32;99405.81;10398128;28;20049;-81
2022/09/13 08:17:16;;;;;;;12.27;7.22;;;;;;;17.51;57.29;99407.94;10399159;28;20646;-83
2022/09/13 08:22:18;;;;;;;11.57;7.38;;;;;;;17.76;57.13;99399.31;10399599;28;20163;-84
2022/09/13 08:27:20;;;;;;;10.52;7.65;;;;;;;18.04;56.28;99399.22;10396233;28;20065;-84
2022/09/13 08:32:22;;;;;;;9.93;7.10;;;;;;;18.11;56.11;99395.84;10400291;28;20057;-84
2022/09/13 08:37:24;;;;;;;11.95;7.32;;;;;;;17.94;55.82;99396.66;10394297;28;20481;-84
2022/09/13 08:42:38;;;;;;;9.40;6.65;;;;;;;18.00;55.53;99395.22;10397205;28;20049;-84
2022/09/13 08:47:42;;;;;;;7.97;6.43;;;;;;;18.08;56.17;99406.72;10399861;28;20068;-84
2022/09/13 08:52:50;;;;;;;10.88;7.05;;;;;;;18.07;56.17;99385.69;10401999;28;20050;-84
2022/09/13 08:58:15;;;;;;;11.88;7.05;;;;;;;18.03;57.00;99373.75;10395658;28;20053;-83
2022/09/13 09:03:34;;;;;;;12.65;7.00;;;;;;;18.11;57.50;99344.72;10390007;28;20053;-83
2022/09/13 09:08:58;;;;;;;11.73;7.25;;;;;;;18.02;57.61;99370.28;10397184;28;20049;-84
2022/09/13 09:14:12;;;;;;;11.80;6.47;;;;;;;18.06;57.90;99384.03;10395918;28;20499;-84
2022/09/13 09:19:29;;;;;;;9.45;6.40;;;;;;;18.26;57.21;99404.09;10396873;28;20149;-84
2022/09/13 09:24:35;;;;;;;9.27;6.30;;;;;;;18.53;55.40;99398.66;10395895;28;20065;-83
2022/09/13 09:29:39;;;;;;;10.38;6.03;;;;;;;18.59;55.21;99390.09;10405544;28;20562;-84
2022/09/13 09:34:44;;;;;;;7.22;5.63;;;;;;;18.67;56.35;99390.16;10390989;28;20498;-84
2022/09/13 09:39:47;;;;;;;9.55;6.20;;;;;;;18.84;56.42;99383.97;10396060;28;20156;-84
2022/09/13 09:44:52;;;;;;;8.13;6.60;;;;;;;19.01;55.75;99384.91;10404486;28;20515;-83
2022/09/13 09:50:09;;;;;;;9.95;6.80;;;;;;;19.10;54.86;99387.44;10395429;28;20428;-84
2022/09/13 09:55:26;;;;;;;10.45;7.07;;;;;;;19.44;53.90;99392.72;10396349;28;20430;-85
2022/09/13 10:00:32;;;;;;;9.07;6.78;;;;;;;19.83;53.49;99385.88;10394300;28;20175;-86
2022/09/13 10:05:35;;;;;;;12.85;6.68;;;;;;;19.96;53.39;99391.56;10398618;28;20057;-85
2022/09/13 10:10:56;;;;;;;9.85;5.88;;;;;;;20.22;52.95;99394.06;10395710;28;20077;-85
2022/09/13 10:16:19;;;;;;;9.38;5.65;;;;;;;20.79;52.39;99400.16;10380563;28;20777;-85
2022/09/13 10:21:25;;;;;;;6.65;4.68;;;;;;;21.25;52.11;99396.72;10394917;28;20487;-85
2022/09/13 10:26:32;;;;;;;6.13;3.47;;;;;;;21.69;50.76;99391.72;10403259;28;20973;-85
2022/09/13 10:31:40;;;;;;;6.47;3.20;;;;;;;22.11;49.85;99392.13;10405507;28;20130;-86
2022/09/13 10:37:06;;;;;;;7.55;2.80;;;;;;;22.47;49.27;99382.50;10395690;28;20522;-86
2022/09/13 10:42:09;;;;;;;4.35;2.10;;;;;;;22.77;47.89;99366.56;10390538;28;20049;-86
2022/09/13 10:47:20;;;;;;;8.77;2.50;;;;;;;22.76;47.79;99378.25;10395062;28;20060;-86
2022/09/13 10:52:32;;;;;;;5.95;2.40;;;;;;;22.68;47.81;99382.63;10387140;28;20053;-88
2022/09/13 10:57:36;;;;;;;4.07;2.15;;;;;;;22.75;47.62;99380.09;10396833;28;20140;-87
2022/09/13 11:02:56;;;;;;;3.83;1.90;;;;;;;22.80;46.68;99376.88;10396838;28;20061;-85
2022/09/13 11:08:18;;;;;;;4.00;1.80;;;;;;;23.06;45.96;99361.25;10387931;28;20050;-86
2022/09/13 11:13:39;;;;;;;2.67;1.70;;;;;;;23.15;45.74;99344.09;10380587;28;20053;-85
2022/09/13 11:19:00;;;;;;;3.83;1.80;;;;;;;23.41;45.35;99333.81;10381947;28;20171;-85
2022/09/13 11:24:19;;;;;;;2.60;1.70;;;;;;;23.70;45.20;99323.03;10387436;28;20077;-85
2022/09/13 11:29:30;;;;;;;2.47;1.50;;;;;;;23.95;44.05;99320.81;10387924;28;20491;-86
2022/09/13 11:34:38;;;;;;;3.40;1.63;;;;;;;24.19;43.89;99313.25;10393078;28;20065;-85
2022/09/13 11:39:52;;;;;;;2.83;1.63;;;;;;;24.43;43.73;99306.63;10398485;28;20056;-85
2022/09/13 11:44:57;;;;;;;3.28;1.70;;;;;;;24.41;43.64;99299.84;10396838;28;20049;-85
2022/09/13 11:50:23;;;;;;;3.45;1.50;;;;;;;24.55;42.57;99298.91;10399136;28;20049;-85
2022/09/13 11:55:31;;;;;;;2.78;1.40;;;;;;;24.66;41.77;99295.66;10400023;28;20076;-86
2022/09/13 12:01:00;;;;;;;4.88;1.40;;;;;;;24.43;42.18;99289.78;10400786;28;20064;-86
2022/09/13 12:06:07;;;;;;;5.10;1.40;;;;;;;24.35;42.52;99281.91;10399549;28;20060;-87
2022/09/13 12:11:21;;;;;;;2.45;1.30;;;;;;;24.47;41.87;99286.50;10398709;28;20054;-86
2022/09/13 12:16:41;;;;;;;3.20;1.45;;;;;;;24.51;42.34;99284.28;10404710;28;20495;-86
2022/09/13 12:21:47;;;;;;;6.80;1.50;;;;;;;24.53;42.18;99292.94;10397432;28;20107;-86
2022/09/13 12:27:09;;;;;;;3.65;1.40;;;;;;;24.36;42.13;99284.38;10392194;28;20068;-86
2022/09/13 12:32:12;;;;;;;3.28;1.38;;;;;;;24.40;42.34;99272.28;10391280;28;20179;-86
2022/09/13 12:37:42;;;;;;;3.10;1.40;;;;;;;24.47;41.69;99269.66;10391630;28;20080;-86
2022/09/13 12:43:01;;;;;;;3.53;1.20;;;;;;;24.31;42.08;99261.94;10376933;28;20053;-86
2022/09/13 12:48:41;;;;;;;1.77;1.25;;;;;;;24.44;41.95;99260.19;10383307;28;20064;-87
2022/09/13 12:54:19;;;;;;;5.35;1.45;;;;;;;24.68;41.47;99256.19;10375509;28;20053;-86
2022/09/13 13:00:08;;;;;;;3.63;1.50;;;;;;;24.88;41.41;99249.94;10383763;28;20166;-86
2022/09/13 13:05:27;;;;;;;2.55;1.65;;;;;;;25.10;40.97;99243.44;10388631;28;20467;-86
2022/09/13 13:10:33;;;;;;;3.92;1.20;;;;;;;24.96;41.08;99251.59;10387749;28;20050;-85
2022/09/13 13:15:35;;;;;;;3.80;1.20;;;;;;;24.91;40.99;99248.72;10386621;28;20057;-86
2022/09/13 13:21:04;;;;;;;3.30;1.20;;;;;;;25.05;40.92;99245.06;10386062;28;20934;-85
2022/09/13 13:26:43;;;;;;;5.07;1.40;;;;;;;25.22;40.38;99241.00;10389208;28;20053;-85
2022/09/13 13:32:02;;;;;;;2.47;1.20;;;;;;;25.24;40.80;99227.44;10386538;28;20545;-85
2022/09/13 13:37:07;;;;;;;4.40;1.50;;;;;;;25.29;40.84;99225.78;10391020;28;20056;-86
2022/09/13 13:42:21;;;;;;;4.47;1.27;;;;;;;25.44;40.97;99225.63;10381085;28;20045;-86
2022/09/13 13:47:29;;;;;;;2.25;1.20;;;;;;;25.10;41.02;99224.69;10381285;28;20056;-85
2022/09/13 13:52:49;;;;;;;2.45;1.20;;;;;;;25.02;41.51;99226.72;10388840;28;20051;-86
2022/09/13 13:57:56;;;;;;;2.25;1.17;;;;;;;24.84;41.65;99221.94;10391222;28;20059;-86
2022/09/13 14:03:01;;;;;;;9.77;1.60;;;;;;;24.56;42.44;99223.00;10384985;28;20136;-85
2022/09/13 14:08:24;;;;;;;6.22;1.48;;;;;;;24.27;42.80;99230.25;10376198;28;20686;-86
2022/09/13 14:13:45;;;;;;;9.45;2.15;;;;;;;23.96;45.15;99228.97;10380797;28;20069;-86
2022/09/13 14:19:18;;;;;;;3.35;1.30;;;;;;;23.64;47.05;99226.84;10394739;28;20049;-87
2022/09/13 14:24:23;;;;;;;3.17;1.50;;;;;;;23.63;47.81;99220.69;10391139;28;20774;-86
2022/09/13 14:29:28;;;;;;;5.75;1.45;;;;;;;23.74;47.45;99214.00;10387860;28;20055;-87
2022/09/13 14:34:34;;;;;;;5.40;1.60;;;;;;;23.64;47.77;99213.50;10382382;28;20081;-87
2022/09/13 14:39:35;;;;;;;5.95;1.70;;;;;;;23.68;46.94;99209.41;10388585;28;20061;-87
2022/09/13 14:44:43;;;;;;;5.38;1.50;;;;;;;23.76;46.94;99198.63;10392613;28;20053;-87
2022/09/13 14:49:53;;;;;;;3.25;1.55;;;;;;;23.44;47.42;99190.13;10389320;28;20553;-87
2022/09/13 14:55:03;;;;;;;2.90;1.40;;;;;;;23.38;47.98;99195.38;10398117;28;20065;-87
2022/09/13 15:00:25;;;;;;;6.95;1.60;;;;;;;23.23;48.12;99191.94;10393805;28;20100;-87
2022/09/13 15:05:31;;;;;;;3.90;1.30;;;;;;;23.16;48.70;99193.72;10391810;28;20064;-87
2022/09/13 15:10:41;;;;;;;3.15;1.35;;;;;;;23.10;49.07;99197.16;10404367;28;20503;-86
2022/09/13 15:15:46;;;;;;;4.07;1.48;;;;;;;23.01;49.64;99188.44;10394907;28;20045;-86
2022/09/13 15:21:02;;;;;;;3.40;1.35;;;;;;;23.12;50.03;99192.44;10384391;28;20639;-86
2022/09/13 15:26:10;;;;;;;6.63;1.70;;;;;;;23.01;51.04;99182.25;10402105;28;20057;-86
2022/09/13 15:31:25;;;;;;;5.60;1.60;;;;;;;22.91;51.28;99177.25;10384422;28;20132;-86
2022/09/13 15:36:28;;;;;;;6.53;1.60;;;;;;;22.99;51.07;99184.28;10388760;28;20446;-86
2022/09/13 15:41:32;;;;;;;5.35;1.50;;;;;;;23.01;51.15;99180.44;10376558;28;20487;-87
2022/09/13 15:46:45;;;;;;;2.63;1.40;;;;;;;22.86;51.57;99179.63;10394924;28;20079;-87
2022/09/13 15:51:59;;;;;;;4.50;1.70;;;;;;;22.75;51.43;99179.31;10386719;28;20053;-87
2022/09/13 15:57:05;;;;;;;7.55;1.70;;;;;;;22.71;51.83;99184.16;10390765;28;20053;-86
2022/09/13 16:02:29;;;;;;;4.68;1.70;;;;;;;22.61;52.74;99175.63;10397885;28;20050;-86
2022/09/13 16:07:31;;;;;;;5.32;1.80;;;;;;;22.47;52.86;99174.66;10404149;28;20066;-87
2022/09/13 16:12:33;;;;;;;5.15;1.90;;;;;;;22.48;53.09;99176.28;10401536;28;20129;-86
2022/09/13 16:17:34;;;;;;;5.00;1.70;;;;;;;22.49;52.89;99166.47;10402952;28;20053;-86
2022/09/13 16:22:36;;;;;;;6.30;2.00;;;;;;;22.36;53.38;99177.78;10397038;28;20068;-86
2022/09/13 16:27:39;;;;;;;4.72;1.90;;;;;;;22.23;54.08;99180.25;10397244;28;20167;-86
2022/09/13 16:32:42;;;;;;;6.50;1.90;;;;;;;22.10;54.65;99181.91;10395201;28;20053;-86
2022/09/13 16:37:43;;;;;;;3.25;1.70;;;;;;;21.96;54.94;99186.19;10396757;28;20050;-87
2022/09/13 16:42:46;;;;;;;5.05;2.00;;;;;;;21.88;55.58;99197.72;10390031;28;20045;-87
2022/09/13 16:47:47;;;;;;;5.97;1.60;;;;;;;21.83;55.97;99186.81;10399517;28;20057;-87
2022/09/13 16:52:49;;;;;;;7.15;2.00;;;;;;;21.81;56.30;99182.66;10387125;28;20339;-86
2022/09/13 16:57:52;;;;;;;4.75;1.70;;;;;;;21.74;56.85;99195.06;10375318;28;20157;-86
2022/09/13 17:02:55;;;;;;;4.07;1.55;;;;;;;21.69;56.97;99195.59;10378530;28;20046;-87
2022/09/13 17:07:57;;;;;;;5.20;1.83;;;;;;;21.61;56.86;99200.16;10375725;28;20056;-87
2022/09/13 17:12:59;;;;;;;3.30;1.83;;;;;;;21.48;58.18;99202.56;10385778;28;20053;-86
2022/09/13 17:18:01;;;;;;;5.50;1.90;;;;;;;21.38;58.34;99207.31;10389387;28;20046;-85
2022/09/13 17:23:03;;;;;;;4.53;2.03;;;;;;;21.33;58.58;99204.38;10386627;28;20045;-86
2022/09/13 17:28:05;;;;;;;6.07;1.90;;;;;;;21.20;58.79;99193.44;10383565;28;20054;-86
2022/09/13 17:33:08;;;;;;;4.32;1.95;;;;;;;21.20;59.84;99204.09;10390975;28;20056;-85
2022/09/13 17:38:10;;;;;;;4.80;2.03;;;;;;;21.14;59.75;99199.47;10387324;28;20049;-86
2022/09/13 17:43:12;;;;;;;5.43;2.10;;;;;;;21.05;59.82;99206.66;10383884;28;20068;-86
2022/09/13 17:48:14;;;;;;;5.50;2.10;;;;;;;20.98;60.18;99200.41;10387431;28;20049;-86
2022/09/13 17:53:16;;;;;;;4.47;2.00;;;;;;;20.93;60.65;99202.75;10380845;28;20057;-86
2022/09/13 17:58:18;;;;;;;6.50;2.25;;;;;;;20.70;61.00;99202.72;10385770;28;20152;-85
2022/09/13 18:03:20;;;;;;;4.72;2.15;;;;;;;20.34;62.16;99204.16;10389015;28;20050;-86
2022/09/13 18:08:24;;;;;;;4.43;2.22;;;;;;;20.22;62.95;99208.19;10388123;28;20410;-85
2022/09/13 18:13:26;;;;;;;4.95;2.70;;;;;;;20.08;63.41;99206.22;10389718;28;20045;-85
2022/09/13 18:18:27;;;;;;;7.40;2.50;;;;;;;20.09;63.37;99195.44;10385435;28;20057;-85
2022/09/13 18:23:31;;;;;;;5.45;2.35;;;;;;;20.12;63.18;99191.63;10390220;28;20041;-87
2022/09/13 18:28:33;;;;;;;4.40;2.13;;;;;;;20.01;64.05;99203.41;10392483;28;20049;-88
2022/09/13 18:33:36;;;;;;;7.45;2.80;;;;;;;20.11;64.48;99205.91;10388988;28;20103;-87
2022/09/13 18:38:42;;;;;;;5.95;2.78;;;;;;;20.18;64.73;99205.03;10378028;28;20054;-88
2022/09/13 18:43:47;;;;;;;5.55;2.85;;;;;;;20.18;64.48;99206.88;10388587;28;20084;-87
2022/09/13 18:48:56;;;;;;;5.93;3.50;;;;;;;20.17;64.40;99205.22;10401302;28;20057;-87
2022/09/13 18:53:59;;;;;;;4.97;3.72;;;;;;;20.09;64.79;99213.22;10397566;28;20049;-87
2022/09/13 18:59:04;;;;;;;8.00;3.17;;;;;;;20.00;64.71;99216.88;10394737;28;20144;-87
2022/09/13 19:04:10;;;;;;;3.97;2.85;;;;;;;20.02;64.79;99217.53;10397228;28;20057;-87
2022/09/13 19:09:13;;;;;;;8.25;3.83;;;;;;;19.98;64.95;99226.81;10393077;28;20053;-87
2022/09/13 19:14:18;;;;;;;8.88;3.00;;;;;;;19.96;65.44;99224.34;10399346;28;20936;-88
2022/09/13 19:19:20;;;;;;;5.15;2.92;;;;;;;19.88;65.50;99221.69;10395971;28;20053;-88
2022/09/13 19:24:21;;;;;;;7.82;3.00;;;;;;;19.93;65.48;99215.91;10392213;28;20524;-87
2022/09/13 19:29:25;;;;;;;6.65;3.53;;;;;;;19.76;66.18;99227.47;10380389;28;20077;-86
2022/09/13 19:34:27;;;;;;;9.27;3.88;;;;;;;19.72;66.12;99216.38;10382927;28;20053;-87
2022/09/13 19:39:30;;;;;;;11.02;3.38;;;;;;;19.70;66.31;99220.19;10381532;28;20136;-86
2022/09/13 19:44:32;;;;;;;5.07;3.00;;;;;;;19.73;66.59;99218.03;10382780;28;20056;-86
2022/09/13 19:49:34;;;;;;;7.65;3.30;;;;;;;19.78;66.48;99225.50;10384509;28;20474;-86
2022/09/13 19:54:37;;;;;;;6.88;3.22;;;;;;;19.76;66.57;99216.88;10373965;28;20530;-86
2022/09/13 19:59:40;;;;;;;7.30;4.03;;;;;;;19.50;66.88;99197.66;10395268;28;20621;-86
2022/09/13 20:04:42;;;;;;;9.90;4.05;;;;;;;19.43;67.25;99211.56;10394300;28;20057;-86
2022/09/13 20:09:45;;;;;;;5.75;3.22;;;;;;;19.58;67.39;99208.25;10396366;28;20522;-86
2022/09/13 20:14:47;;;;;;;8.20;3.92;;;;;;;19.63;67.08;99205.91;10390093;28;20077;-86
2022/09/13 20:19:49;;;;;;;9.88;5.30;;;;;;;19.63;67.26;99205.91;10389463;28;20084;-86
2022/09/13 20:24:51;;;;;;;8.75;5.18;;;;;;;19.59;67.19;99189.50;10385835;28;20057;-86
2022/09/13 20:29:54;;;;;;;7.05;3.80;;;;;;;19.59;67.38;99183.38;10384145;28;20111;-86
2022/09/13 20:34:56;;;;;;;8.80;3.95;;;;;;;19.57;67.25;99185.34;10393388;28;20763;-85
2022/09/13 20:40:00;;;;;;;9.10;5.38;;;;;;;19.60;67.41;99188.53;10393299;28;20414;-86
2022/09/13 20:45:02;;;;;;;6.57;5.30;;;;;;;19.49;67.46;99178.25;10400818;28;20384;-87
2022/09/13 20:50:04;;;;;;;6.05;3.85;;;;;;;19.26;67.92;99171.94;10395675;28;20061;-86
2022/09/13 20:55:07;;;;;;;12.07;5.10;;;;;;;18.97;68.75;99155.66;10396246;28;20052;-87
2022/09/13 21:00:09;;;;;;;8.60;6.07;;;;;;;18.79;69.34;99147.00;10398107;28;20049;-86
2022/09/13 21:05:11;;;;;;;8.00;3.50;;;;;;;18.76;69.58;99148.16;10389151;28;20057;-86
2022/09/13 21:10:13;;;;;;;9.15;4.65;;;;;;;18.79;69.57;99141.72;10388059;28;20053;-86
2022/09/13 21:15:15;;;;;;;6.53;3.35;;;;;;;18.79;69.36;99129.28;10394081;28;20050;-87
2022/09/13 21:20:16;;;;;;;7.03;4.15;;;;;;;18.88;69.25;99120.38;10392743;28;20488;-86
2022/09/13 21:25:18;;;;;;;11.20;5.57;;;;;;;18.97;69.03;99123.84;10385218;28;20342;-87
2022/09/13 21:30:20;;;;;;;10.15;4.57;;;;;;;18.84;69.16;99126.97;10388446;28;20058;-86
2022/09/13 21:35:22;;;;;;;7.03;4.90;;;;;;;18.99;69.11;99124.53;10383783;28;20057;-86
2022/09/13 21:40:24;;;;;;;8.48;4.28;;;;;;;19.15;68.68;99130.69;10386108;28;20148;-87
2022/09/13 21:45:26;;;;;;;10.68;4.43;;;;;;;19.25;68.76;99134.00;10390734;28;20057;-88
2022/09/13 21:50:28;;;;;;;7.22;5.03;;;;;;;19.39;68.19;99143.94;10387480;28;20061;-86
2022/09/13 21:55:34;;;;;;;13.57;8.13;;;;;;;19.35;68.63;99129.38;10388528;28;20056;-86
2022/09/13 22:00:38;;;;;;;10.60;6.55;;;;;;;19.28;68.78;99125.72;10382900;28;20606;-86
2022/09/13 22:05:40;;;;;;;8.18;5.32;;;;;;;19.29;68.47;99114.13;10391598;28;20045;-87
2022/09/13 22:10:42;;;;;;;10.35;6.13;;;;;;;19.28;68.72;99103.66;10390192;28;20053;-87
2022/09/13 22:15:43;;;;;;;9.13;7.03;;;;;;;19.27;68.36;99096.72;10393394;28;20057;-88
2022/09/13 22:20:45;;;;;;;11.98;6.47;;;;;;;19.19;68.54;99091.44;10390858;28;20491;-87
2022/09/13 22:25:47;;;;;;;23.83;10.70;;;;;;;19.11;68.74;99076.38;10391866;28;20053;-87
2022/09/13 22:30:49;;;;;;;14.77;7.93;;;;;;;19.08;68.79;99070.53;10391007;28;20053;-87
2022/09/13 22:36:01;;;;;;;11.15;6.45;;;;;;;18.97;68.97;99076.97;10390679;28;20053;-85
2022/09/13 22:41:06;;;;;;;11.30;6.85;;;;;;;19.04;68.66;99077.16;10378944;28;20049;-85
2022/09/13 22:46:15;;;;;;;13.20;7.88;;;;;;;19.14;68.38;99081.31;10391288;28;20049;-84
2022/09/13 22:51:17;;;;;;;32.70;11.07;;;;;;;19.12;68.41;99067.41;10385186;28;20057;-84
2022/09/13 22:56:21;;;;;;;26.15;11.77;;;;;;;19.15;68.38;99053.84;10389271;28;20049;-85
2022/09/13 23:01:23;;;;;;;14.70;8.85;;;;;;;19.03;68.73;99064.94;10385357;28;20144;-85
2022/09/13 23:06:27;;;;;;;12.63;8.05;;;;;;;19.03;68.84;99060.44;10385973;28;20144;-85
2022/09/13 23:11:31;;;;;;;12.50;6.28;;;;;;;18.99;68.68;99080.28;10395904;28;20060;-84
2022/09/13 23:16:36;;;;;;;17.05;10.02;;;;;;;18.84;69.09;99063.41;10400211;28;20061;-85
2022/09/13 23:21:39;;;;;;;6.68;4.97;;;;;;;18.85;68.80;99065.03;10388376;28;20906;-85
2022/09/13 23:26:42;;;;;;;13.95;8.02;;;;;;;18.94;68.86;99063.22;10386495;28;20100;-85
2022/09/13 23:31:45;;;;;;;10.93;6.63;;;;;;;18.90;68.56;99065.38;10394441;28;20057;-84
2022/09/13 23:36:47;;;;;;;11.43;7.40;;;;;;;18.84;69.10;99070.50;10393676;28;20047;-85
2022/09/13 23:41:50;;;;;;;15.30;9.10;;;;;;;18.91;68.87;99077.63;10393558;28;20124;-84